createdAt,value
2023-04-27T00:02:14.422Z,82.69
2023-04-27T00:04:41.775Z,82.26
2023-04-27T00:07:09.178Z,82.82
2023-04-27T00:09:36.222Z,83.33
2023-04-27T00:12:03.176Z,84.76
2023-04-27T00:14:30.062Z,85.10
2023-04-27T00:16:56.938Z,84.22
2023-04-27T00:19:23.825Z,84.76
2023-04-27T00:21:50.835Z,84.87
2023-04-27T00:24:17.819Z,84.98
2023-04-27T00:26:44.645Z,84.96
2023-04-27T00:29:12.982Z,84.93
2023-04-27T00:31:40.036Z,84.96
2023-04-27T00:34:06.969Z,85.10
2023-04-27T00:36:35.049Z,85.67
2023-04-27T00:39:04.113Z,86.34
2023-04-27T00:41:31.645Z,86.58
2023-04-27T00:43:58.464Z,86.55
2023-04-27T00:46:26.458Z,86.59
2023-04-27T00:48:54.328Z,86.62
2023-04-27T00:51:21.372Z,87.00
2023-04-27T00:53:51.167Z,87.22
2023-04-27T00:56:18.145Z,87.27
2023-04-27T00:58:45.478Z,88.18
2023-04-27T01:01:13.389Z,88.54
2023-04-27T01:03:40.637Z,88.74
2023-04-27T01:06:07.743Z,88.58
2023-04-27T01:08:34.681Z,88.32
2023-04-27T01:11:01.664Z,88.52
2023-04-27T01:13:28.580Z,88.45
2023-04-27T01:15:55.441Z,88.93
2023-04-27T01:18:22.353Z,88.53
2023-04-27T01:20:49.856Z,88.30
2023-04-27T01:23:17.568Z,88.33
2023-04-27T01:25:44.857Z,88.41
2023-04-27T01:28:12.108Z,88.59
2023-04-27T01:30:39.079Z,89.55
2023-04-27T01:33:06.084Z,89.58
2023-04-27T01:35:33.077Z,89.32
2023-04-27T01:38:00.276Z,89.05
2023-04-27T01:40:27.194Z,89.42
2023-04-27T01:42:54.039Z,89.43
2023-04-27T01:45:21.102Z,89.17
2023-04-27T01:47:48.048Z,89.25
2023-04-27T01:50:15.047Z,89.28
2023-04-27T01:52:42.291Z,89.51
2023-04-27T01:55:09.419Z,89.42
2023-04-27T01:57:36.396Z,89.26
2023-04-27T02:00:05.370Z,89.31
2023-04-27T02:02:32.397Z,89.30
2023-04-27T02:04:59.328Z,89.12
2023-04-27T02:07:26.288Z,89.14
2023-04-27T02:09:53.227Z,89.07
2023-04-27T02:12:20.230Z,89.18
2023-04-27T02:14:47.048Z,89.20
2023-04-27T02:17:13.898Z,89.72
2023-04-27T02:19:40.868Z,90.08
2023-04-27T02:22:07.812Z,90.25
2023-04-27T02:24:35.634Z,90.28
2023-04-27T02:27:03.780Z,90.66
2023-04-27T02:29:31.981Z,90.76
2023-04-27T02:31:59.389Z,91.01
2023-04-27T02:34:26.392Z,90.66
2023-04-27T02:36:53.273Z,90.56
2023-04-27T02:39:20.433Z,90.98
2023-04-27T02:41:47.399Z,91.04
2023-04-27T02:44:14.205Z,91.29
2023-04-27T02:46:41.077Z,91.44
2023-04-27T02:49:07.960Z,91.40
2023-04-27T02:51:34.737Z,91.56
2023-04-27T02:54:01.767Z,91.78
2023-04-27T02:56:29.169Z,91.95
2023-04-27T02:58:56.437Z,91.92
2023-04-27T03:01:24.513Z,92.20
2023-04-27T03:03:52.398Z,92.19
2023-04-27T03:06:19.395Z,92.37
2023-04-27T03:08:46.359Z,92.45
2023-04-27T03:11:13.370Z,92.13
2023-04-27T03:13:43.301Z,92.30
2023-04-27T03:16:14.114Z,92.57
2023-04-27T03:18:41.317Z,92.26
2023-04-27T03:21:12.698Z,92.72
2023-04-27T03:23:40.181Z,92.51
2023-04-27T03:26:11.606Z,92.76
2023-04-27T03:28:38.630Z,92.71
2023-04-27T03:31:10.050Z,92.55
2023-04-27T03:33:37.891Z,92.71
2023-04-27T03:36:06.563Z,92.46
2023-04-27T03:38:34.507Z,92.72
2023-04-27T03:41:01.739Z,93.06
2023-04-27T03:43:28.899Z,93.27
2023-04-27T03:45:56.139Z,93.02
2023-04-27T03:48:23.163Z,92.81
2023-04-27T03:50:50.111Z,92.92
2023-04-27T03:53:16.963Z,92.85
2023-04-27T03:55:44.743Z,92.83
2023-04-27T03:58:12.142Z,93.09
2023-04-27T04:00:39.948Z,93.08
2023-04-27T04:03:08.164Z,93.12
2023-04-27T04:05:35.468Z,92.92
2023-04-27T04:08:02.319Z,93.20
2023-04-27T04:10:29.614Z,92.98
2023-04-27T04:12:56.546Z,93.21
2023-04-27T04:15:23.426Z,93.51
2023-04-27T04:17:50.300Z,93.24
2023-04-27T04:20:17.558Z,93.08
2023-04-27T04:22:44.438Z,92.76
2023-04-27T04:25:11.633Z,92.96
2023-04-27T04:27:38.910Z,92.81
2023-04-27T04:30:07.180Z,92.74
2023-04-27T04:32:37.823Z,92.87
2023-04-27T04:35:06.216Z,92.55
2023-04-27T04:37:35.430Z,92.41
2023-04-27T04:40:10.106Z,92.70
2023-04-27T04:42:37.731Z,93.03
2023-04-27T04:45:05.407Z,93.16
2023-04-27T04:47:32.408Z,92.83
2023-04-27T04:49:59.395Z,92.20
2023-04-27T04:52:26.196Z,92.15
2023-04-27T04:54:53.514Z,91.85
2023-04-27T04:57:20.643Z,91.57
2023-04-27T04:59:47.710Z,91.12
2023-04-27T05:02:14.734Z,90.74
2023-04-27T05:04:41.939Z,90.34
2023-04-27T05:07:09.013Z,90.11
2023-04-27T05:09:35.851Z,89.64
2023-04-27T05:12:03.407Z,89.72
2023-04-27T05:14:30.362Z,89.06
2023-04-27T05:16:57.211Z,88.89
2023-04-27T05:19:25.309Z,88.44
2023-04-27T05:21:52.268Z,87.97
2023-04-27T05:24:19.205Z,88.37
2023-04-27T05:26:46.013Z,87.97
2023-04-27T05:29:13.139Z,87.75
2023-04-27T05:31:40.398Z,87.39
2023-04-27T05:34:09.981Z,86.72
2023-04-27T05:36:36.961Z,85.85
2023-04-27T05:39:03.918Z,85.46
2023-04-27T05:41:31.215Z,85.08
2023-04-27T05:43:58.097Z,84.74
2023-04-27T05:46:25.123Z,83.74
2023-04-27T05:48:52.714Z,82.93
2023-04-27T05:51:19.965Z,82.08
2023-04-27T05:53:46.937Z,81.59
2023-04-27T05:56:13.921Z,81.42
2023-04-27T05:58:41.256Z,80.46
2023-04-27T06:01:08.391Z,79.83
2023-04-27T06:03:35.887Z,78.59
2023-04-27T06:06:03.227Z,77.89
2023-04-27T06:08:30.939Z,75.40
2023-04-27T06:10:57.910Z,76.66
2023-04-27T06:13:24.967Z,76.22
2023-04-27T06:15:51.876Z,74.60
2023-04-27T06:18:19.088Z,73.34
2023-04-27T06:20:47.061Z,70.90
2023-04-27T06:23:13.930Z,70.16
2023-04-27T06:25:41.132Z,64.16
2023-04-27T06:28:08.229Z,65.20
2023-04-27T06:30:35.726Z,65.50
2023-04-27T06:33:03.527Z,61.85
2023-04-27T06:35:31.598Z,62.61
2023-04-27T06:37:59.110Z,61.82
2023-04-27T06:40:27.007Z,59.78
2023-04-27T06:42:53.879Z,62.84
2023-04-27T06:45:20.946Z,61.73
2023-04-27T06:47:47.970Z,61.22
2023-04-27T06:50:16.527Z,59.54
2023-04-27T06:52:43.745Z,56.04
2023-04-27T06:55:10.904Z,57.67
2023-04-27T06:57:37.879Z,55.25
2023-04-27T07:00:05.672Z,53.93
2023-04-27T07:02:32.643Z,51.78
2023-04-27T07:04:59.599Z,51.54
2023-04-27T07:07:26.489Z,51.42
2023-04-27T07:09:53.738Z,49.10
2023-04-27T07:12:20.854Z,48.31
2023-04-27T07:14:50.766Z,47.99
2023-04-27T07:17:17.725Z,49.49
2023-04-27T07:19:44.607Z,47.97
2023-04-27T07:22:11.956Z,48.95
2023-04-27T07:24:39.094Z,49.18
2023-04-27T07:27:06.037Z,48.97
2023-04-27T07:29:33.262Z,47.25
2023-04-27T07:32:00.487Z,45.40
2023-04-27T07:34:29.270Z,46.48
2023-04-27T07:37:02.522Z,42.91
2023-04-27T07:39:29.506Z,44.95
2023-04-27T07:41:56.547Z,46.31
2023-04-27T07:44:23.937Z,44.08
2023-04-27T07:46:54.091Z,46.41
2023-04-27T07:49:20.997Z,45.91
2023-04-27T07:51:47.867Z,45.54
2023-04-27T07:54:14.752Z,44.38
2023-04-27T07:56:43.277Z,43.77
2023-04-27T07:59:10.334Z,43.79
2023-04-27T08:01:37.932Z,39.80
2023-04-27T08:04:05.989Z,39.61
2023-04-27T08:06:33.465Z,37.44
2023-04-27T08:09:02.073Z,38.55
2023-04-27T08:11:28.893Z,36.99
2023-04-27T08:13:55.951Z,36.46
2023-04-27T08:16:22.812Z,37.13
2023-04-27T08:18:50.668Z,38.27
2023-04-27T08:21:17.660Z,35.50
2023-04-27T08:23:44.554Z,35.85
2023-04-27T08:26:15.743Z,36.68
2023-04-27T08:28:42.564Z,36.83
2023-04-27T08:31:09.864Z,37.28
2023-04-27T08:33:37.129Z,37.31
2023-04-27T08:36:04.379Z,36.30
2023-04-27T08:38:31.454Z,36.26
2023-04-27T08:41:02.688Z,34.85
2023-04-27T08:43:35.993Z,36.00
2023-04-27T08:46:03.462Z,35.97
2023-04-27T08:48:30.605Z,33.34
2023-04-27T08:51:00.835Z,33.76
2023-04-27T08:53:27.732Z,31.16
2023-04-27T08:55:56.823Z,32.44
2023-04-27T08:58:36.314Z,32.21
2023-04-27T09:01:08.289Z,34.09
2023-04-27T09:03:37.119Z,33.05
2023-04-27T09:06:06.200Z,31.81
2023-04-27T09:08:46.998Z,30.65
2023-04-27T09:11:15.845Z,30.38
2023-04-27T09:13:45.522Z,29.41
2023-04-27T09:16:17.176Z,28.74
2023-04-27T09:18:44.492Z,28.83
2023-04-27T09:21:21.704Z,27.67
2023-04-27T09:23:48.820Z,27.97
2023-04-27T09:26:26.971Z,29.09
2023-04-27T09:28:57.506Z,27.95
2023-04-27T09:31:37.880Z,27.49
2023-04-27T09:34:05.194Z,27.69
2023-04-27T09:36:35.024Z,28.72
2023-04-27T09:39:05.467Z,27.15
2023-04-27T09:41:33.456Z,26.37
2023-04-27T09:44:01.738Z,26.13
2023-04-27T09:46:30.047Z,25.69
2023-04-27T09:48:57.903Z,24.54
2023-04-27T09:51:24.880Z,26.32
2023-04-27T09:53:56.570Z,27.98
2023-04-27T09:56:31.813Z,27.63
2023-04-27T09:59:30.247Z,27.23
2023-04-27T10:02:07.360Z,28.50
2023-04-27T10:05:03.200Z,30.54
2023-04-27T10:07:32.511Z,29.74
2023-04-27T10:10:02.685Z,27.13
2023-04-27T10:12:36.917Z,26.16
2023-04-27T10:15:14.300Z,24.50
2023-04-27T10:17:49.300Z,25.82
2023-04-27T10:20:17.928Z,24.08
2023-04-27T10:22:52.579Z,23.67
2023-04-27T10:25:28.360Z,24.38
2023-04-27T10:27:56.763Z,25.78
2023-04-27T10:30:26.322Z,24.43
2023-04-27T10:32:55.557Z,24.18
2023-04-27T10:35:32.723Z,24.81
2023-04-27T10:38:17.694Z,24.61
2023-04-27T10:40:46.537Z,24.71
2023-04-27T10:43:18.192Z,23.57
2023-04-27T10:45:45.467Z,23.82
2023-04-27T10:48:14.574Z,23.34
2023-04-27T10:50:42.599Z,24.67
2023-04-27T10:53:09.624Z,23.02
2023-04-27T10:55:37.109Z,23.88
2023-04-27T10:58:04.599Z,23.97
2023-04-27T11:00:43.966Z,23.96
2023-04-27T11:03:25.275Z,21.67
2023-04-27T11:06:05.947Z,23.07
2023-04-27T11:08:34.208Z,22.86
2023-04-27T11:11:01.808Z,23.75
2023-04-27T11:13:29.197Z,24.47
2023-04-27T11:15:58.589Z,25.47
2023-04-27T11:18:31.761Z,24.21
2023-04-27T11:21:09.330Z,24.22
2023-04-27T11:23:38.263Z,24.41
2023-04-27T11:26:22.552Z,21.76
2023-04-27T11:28:59.986Z,22.40
2023-04-27T11:31:29.100Z,24.15
2023-04-27T11:33:56.323Z,24.17
2023-04-27T11:36:23.903Z,24.75
2023-04-27T11:38:51.192Z,23.40
2023-04-27T11:41:18.112Z,22.91
2023-04-27T11:43:51.345Z,24.68
2023-04-27T11:46:22.486Z,22.38
2023-04-27T11:48:50.067Z,21.86
2023-04-27T11:51:17.084Z,23.37
2023-04-27T11:53:48.255Z,21.50
2023-04-27T11:56:15.282Z,23.08
2023-04-27T11:58:44.418Z,23.73
2023-04-27T12:01:13.053Z,24.98
2023-04-27T12:03:40.824Z,25.45
2023-04-27T12:06:27.719Z,25.51
2023-04-27T12:08:58.368Z,25.91
2023-04-27T12:11:27.820Z,24.78
2023-04-27T12:13:55.358Z,24.14
2023-04-27T12:16:23.400Z,23.26
2023-04-27T12:18:51.127Z,24.20
2023-04-27T12:21:18.173Z,24.74
2023-04-27T12:23:45.085Z,26.98
2023-04-27T12:26:15.036Z,26.35
2023-04-27T12:28:42.673Z,27.47
2023-04-27T12:31:14.406Z,25.67
2023-04-27T12:33:41.750Z,24.09
2023-04-27T12:36:09.769Z,25.08
2023-04-27T12:38:37.250Z,26.81
2023-04-27T12:41:04.366Z,27.22
2023-04-27T12:43:31.948Z,26.19
2023-04-27T12:45:59.358Z,24.39
2023-04-27T12:48:26.527Z,24.69
2023-04-27T12:50:53.620Z,24.52
2023-04-27T12:53:21.800Z,22.87
2023-04-27T12:55:49.045Z,22.93
2023-04-27T12:58:16.299Z,23.16
2023-04-27T13:00:43.269Z,23.58
2023-04-27T13:03:10.777Z,23.28
2023-04-27T13:05:38.138Z,24.55
2023-04-27T13:08:05.737Z,25.60
2023-04-27T13:10:32.690Z,23.58
2023-04-27T13:13:00.210Z,21.83
2023-04-27T13:15:28.621Z,23.62
2023-04-27T13:17:58.253Z,21.64
2023-04-27T13:20:25.672Z,20.98
2023-04-27T13:22:52.972Z,21.13
2023-04-27T13:25:20.851Z,21.43
2023-04-27T13:27:47.840Z,22.17
2023-04-27T13:30:14.882Z,22.31
2023-04-27T13:32:41.848Z,21.59
2023-04-27T13:35:09.262Z,23.15
2023-04-27T13:37:36.174Z,21.86
2023-04-27T13:40:03.279Z,21.87
2023-04-27T13:42:30.243Z,22.06
2023-04-27T13:44:57.234Z,21.07
2023-04-27T13:47:24.366Z,19.55
2023-04-27T13:49:51.502Z,20.91
2023-04-27T13:52:18.781Z,21.09
2023-04-27T13:54:45.705Z,19.75
2023-04-27T13:57:12.563Z,20.66
2023-04-27T13:59:39.625Z,20.04
2023-04-27T14:02:08.415Z,19.22
2023-04-27T14:04:35.695Z,18.56
2023-04-27T14:07:02.771Z,18.54
2023-04-27T14:09:29.773Z,19.86
2023-04-27T14:11:57.823Z,21.15
2023-04-27T14:14:24.801Z,21.41
2023-04-27T14:16:54.832Z,20.74
2023-04-27T14:19:22.174Z,20.33
2023-04-27T14:21:49.993Z,21.09
2023-04-27T14:24:17.209Z,20.97
2023-04-27T14:26:45.382Z,20.88
2023-04-27T14:29:12.548Z,21.32
2023-04-27T14:31:40.521Z,20.29
2023-04-27T14:34:08.948Z,20.01
2023-04-27T14:36:36.261Z,20.34
2023-04-27T14:39:05.504Z,20.82
2023-04-27T14:41:32.946Z,21.43
2023-04-27T14:43:59.913Z,23.80
2023-04-27T14:46:26.972Z,24.31
2023-04-27T14:48:54.028Z,23.87
2023-04-27T14:51:21.588Z,23.60
2023-04-27T14:53:48.813Z,24.01
2023-04-27T14:56:16.214Z,23.99
2023-04-27T14:58:43.534Z,23.68
2023-04-27T15:01:11.538Z,23.50
2023-04-27T15:03:38.948Z,23.90
2023-04-27T15:06:06.909Z,22.97
2023-04-27T15:08:34.490Z,23.55
2023-04-27T15:11:03.884Z,22.20
2023-04-27T15:13:31.212Z,23.27
2023-04-27T15:15:59.501Z,23.20
2023-04-27T15:18:26.847Z,23.99
2023-04-27T15:20:54.688Z,23.89
2023-04-27T15:23:22.983Z,25.81
2023-04-27T15:25:51.981Z,25.53
2023-04-27T15:28:19.597Z,24.26
2023-04-27T15:30:47.386Z,23.53
2023-04-27T15:33:15.536Z,24.01
2023-04-27T15:35:43.026Z,23.67
2023-04-27T15:38:12.666Z,23.95
2023-04-27T15:40:40.305Z,23.87
2023-04-27T15:43:07.463Z,24.57
2023-04-27T15:45:34.567Z,23.35
2023-04-27T15:48:01.838Z,24.23
2023-04-27T15:50:29.399Z,23.24
2023-04-27T15:52:56.374Z,23.47
2023-04-27T15:55:23.819Z,25.36
2023-04-27T15:57:51.008Z,25.66
2023-04-27T16:00:19.144Z,26.31
2023-04-27T16:02:46.610Z,27.01
2023-04-27T16:05:14.414Z,27.41
2023-04-27T16:07:43.484Z,28.64
2023-04-27T16:10:11.775Z,29.07
2023-04-27T16:12:39.691Z,29.53
2023-04-27T16:15:10.001Z,29.75
2023-04-27T16:17:38.164Z,29.42
2023-04-27T16:20:06.789Z,29.71
2023-04-27T16:22:34.814Z,29.91
2023-04-27T16:25:02.353Z,29.50
2023-04-27T16:27:29.899Z,29.67
2023-04-27T16:29:57.068Z,31.19
2023-04-27T16:32:24.330Z,29.17
2023-04-27T16:34:51.715Z,28.79
2023-04-27T16:37:19.009Z,28.45
2023-04-27T16:39:46.497Z,27.97
2023-04-27T16:42:18.726Z,28.87
2023-04-27T16:44:49.292Z,30.04
2023-04-27T16:47:16.195Z,29.63
2023-04-27T16:49:46.099Z,30.59
2023-04-27T16:52:13.106Z,30.89
2023-04-27T16:54:40.201Z,32.46
2023-04-27T16:57:07.900Z,31.93
2023-04-27T16:59:35.582Z,32.16
2023-04-27T17:02:16.302Z,32.43
2023-04-27T17:04:48.306Z,32.30
2023-04-27T17:07:15.274Z,33.15
2023-04-27T17:09:42.642Z,32.54
2023-04-27T17:12:12.349Z,32.74
2023-04-27T17:14:39.670Z,32.92
2023-04-27T17:17:06.967Z,32.83
2023-04-27T17:19:34.092Z,33.09
2023-04-27T17:22:01.295Z,33.10
2023-04-27T17:24:28.274Z,33.77
2023-04-27T17:26:55.264Z,33.50
2023-04-27T17:29:22.183Z,34.12
2023-04-27T17:31:50.539Z,34.32
2023-04-27T17:34:17.875Z,34.60
2023-04-27T17:36:46.177Z,35.24
2023-04-27T17:39:14.075Z,34.86
2023-04-27T17:41:43.780Z,36.17
2023-04-27T17:44:12.569Z,38.20
2023-04-27T17:46:46.968Z,39.22
2023-04-27T17:49:15.317Z,39.35
2023-04-27T17:51:43.965Z,39.43
2023-04-27T17:54:12.363Z,40.14
2023-04-27T17:56:39.903Z,39.92
2023-04-27T17:59:09.873Z,39.48
2023-04-27T18:01:36.933Z,39.54
2023-04-27T18:04:07.121Z,40.76
2023-04-27T18:06:34.747Z,41.87
2023-04-27T18:09:03.260Z,41.68
2023-04-27T18:11:30.613Z,42.82
2023-04-27T18:14:00.559Z,43.68
2023-04-27T18:16:27.681Z,43.92
2023-04-27T18:18:55.685Z,45.23
2023-04-27T18:21:22.755Z,45.84
2023-04-27T18:23:49.838Z,45.96
2023-04-27T18:26:17.372Z,46.69
2023-04-27T18:28:44.752Z,47.09
2023-04-27T18:31:16.054Z,48.01
2023-04-27T18:33:45.157Z,49.07
2023-04-27T18:36:12.726Z,49.42
2023-04-27T18:38:43.656Z,49.01
2023-04-27T18:41:10.824Z,50.35
2023-04-27T18:43:38.220Z,51.20
2023-04-27T18:46:06.096Z,51.20
2023-04-27T18:48:33.869Z,51.78
2023-04-27T18:51:00.800Z,52.38
2023-04-27T18:53:28.756Z,51.87
2023-04-27T18:55:55.840Z,52.22
2023-04-27T18:58:23.871Z,53.48
2023-04-27T19:00:51.712Z,53.88
2023-04-27T19:03:20.731Z,54.24
2023-04-27T19:05:48.508Z,54.54
2023-04-27T19:08:15.769Z,55.26
2023-04-27T19:10:43.177Z,55.58
2023-04-27T19:13:11.437Z,56.37
2023-04-27T19:15:39.314Z,56.59
2023-04-27T19:18:10.871Z,57.26
2023-04-27T19:20:39.746Z,58.32
2023-04-27T19:23:09.416Z,58.49
2023-04-27T19:25:36.948Z,58.54
2023-04-27T19:28:05.163Z,58.52
2023-04-27T19:30:32.726Z,58.20
2023-04-27T19:33:00.054Z,59.26
2023-04-27T19:35:27.752Z,59.51
2023-04-27T19:37:55.775Z,60.55
2023-04-27T19:40:23.231Z,59.90
2023-04-27T19:42:50.869Z,59.30
2023-04-27T19:45:18.526Z,60.36
2023-04-27T19:47:46.170Z,60.64
2023-04-27T19:50:15.067Z,61.45
2023-04-27T19:52:42.576Z,62.42
2023-04-27T19:55:10.403Z,63.05
2023-04-27T19:57:37.942Z,63.07
2023-04-27T20:00:07.142Z,63.94
2023-04-27T20:02:34.499Z,64.98
2023-04-27T20:05:02.864Z,65.42
2023-04-27T20:07:31.260Z,65.51
2023-04-27T20:09:58.308Z,65.85
2023-04-27T20:12:44.180Z,66.44
2023-04-27T20:15:13.417Z,66.88
2023-04-27T20:17:40.828Z,67.20
2023-04-27T20:20:10.680Z,67.02
2023-04-27T20:22:38.853Z,67.24
2023-04-27T20:25:08.163Z,66.46
2023-04-27T20:27:38.138Z,66.89
2023-04-27T20:30:05.822Z,68.58
2023-04-27T20:32:33.401Z,67.95
2023-04-27T20:35:02.626Z,67.56
2023-04-27T20:37:29.823Z,68.23
2023-04-27T20:39:56.971Z,69.91
2023-04-27T20:42:24.993Z,69.42
2023-04-27T20:44:56.822Z,69.69
2023-04-27T20:47:23.734Z,70.23
2023-04-27T20:49:50.713Z,69.80
2023-04-27T20:52:18.183Z,70.81
2023-04-27T20:54:45.695Z,70.26
2023-04-27T20:57:14.412Z,70.81
2023-04-27T20:59:41.706Z,70.73
2023-04-27T21:02:08.793Z,70.44
2023-04-27T21:04:36.349Z,70.26
2023-04-27T21:07:03.555Z,70.43
2023-04-27T21:09:31.531Z,69.79
2023-04-27T21:11:59.047Z,70.44
2023-04-27T21:14:26.041Z,71.83
2023-04-27T21:16:53.250Z,71.14
2023-04-27T21:19:20.659Z,72.07
2023-04-27T21:21:47.946Z,72.42
2023-04-27T21:24:15.214Z,73.27
2023-04-27T21:26:42.500Z,74.01
2023-04-27T21:29:09.559Z,73.61
2023-04-27T21:31:37.154Z,73.85
2023-04-27T21:34:04.334Z,73.29
2023-04-27T21:36:33.251Z,73.44
2023-04-27T21:39:00.706Z,73.73
2023-04-27T21:41:27.781Z,73.40
2023-04-27T21:43:55.203Z,74.52
2023-04-27T21:46:25.582Z,74.95
2023-04-27T21:48:52.499Z,74.48
2023-04-27T21:51:19.872Z,74.98
2023-04-27T21:53:46.883Z,74.98
2023-04-27T21:56:13.994Z,76.16
2023-04-27T21:58:41.170Z,76.49
2023-04-27T22:01:11.243Z,76.93
2023-04-27T22:03:39.039Z,77.21
2023-04-27T22:06:07.572Z,77.18
2023-04-27T22:08:35.382Z,76.80
2023-04-27T22:11:02.691Z,76.30
2023-04-27T22:13:30.181Z,76.99
2023-04-27T22:15:57.143Z,76.99
2023-04-27T22:18:24.185Z,77.79
2023-04-27T22:20:51.996Z,77.11
2023-04-27T22:23:19.288Z,76.10
2023-04-27T22:25:46.815Z,76.32
2023-04-27T22:28:13.962Z,77.04
2023-04-27T22:30:44.733Z,77.00
2023-04-27T22:33:12.799Z,77.70
2023-04-27T22:35:40.156Z,77.68
2023-04-27T22:38:07.729Z,78.11
2023-04-27T22:40:35.768Z,78.19
2023-04-27T22:43:02.866Z,79.04
2023-04-27T22:45:30.552Z,79.58
2023-04-27T22:47:57.779Z,79.67
2023-04-27T22:50:25.022Z,78.94
2023-04-27T22:52:53.250Z,80.20
2023-04-27T22:55:20.833Z,79.66
2023-04-27T22:57:50.186Z,80.47
2023-04-27T23:00:17.473Z,80.44
2023-04-27T23:02:44.886Z,80.12
2023-04-27T23:05:12.729Z,80.59
2023-04-27T23:07:41.427Z,80.41
2023-04-27T23:10:08.971Z,80.50
2023-04-27T23:12:37.863Z,80.68
2023-04-27T23:15:05.496Z,80.56
2023-04-27T23:17:32.784Z,80.42
2023-04-27T23:20:01.808Z,80.72
2023-04-27T23:22:28.952Z,80.75
2023-04-27T23:24:56.359Z,81.72
2023-04-27T23:27:24.948Z,81.75
2023-04-27T23:29:52.870Z,81.44
2023-04-27T23:32:20.883Z,81.40
2023-04-27T23:34:48.246Z,80.95
2023-04-27T23:37:15.124Z,82.00
2023-04-27T23:39:42.667Z,82.66
2023-04-27T23:42:09.746Z,82.93
2023-04-27T23:44:37.148Z,83.06
2023-04-27T23:47:04.503Z,83.55
2023-04-27T23:49:31.965Z,83.40
2023-04-27T23:51:59.377Z,83.41
2023-04-27T23:54:30.476Z,83.14
2023-04-27T23:56:57.653Z,82.70
2023-04-27T23:59:25.188Z,83.09
